< < Back
Terminal Aerodrome Forecast


Current Version              Previous Versions:   1  2  3  4  5  6  7  8  9  

Terminal Aerodrome Forecast

372
FTUS44 KBMX 160500
TAFTCL
TAF
KTCL 160531Z 1606/1706 00000KT P6SM BKN120
     FM160900 00000KT 4SM BR SCT008 BKN015
      TEMPO 1611/1613 2SM BR BKN007
     FM161400 33004KT P6SM SCT040 BKN250
     FM161900 33007KT P6SM SCT250
     FM170200 33003KT P6SM SCT250=

Latest METAR

410
SAUS70 KWBC 161500 RRI
MTRTCL
METAR KTCL 161453Z 35005KT 10SM CLR 26/22 A3011 RMK AO2 SLP192 T02560217
50004


USA.gov is the U.S. government's official web portal to all federal, state and local government web resources and services.